Time;durP1;ratioP1;P1;durP2;ratioP2;P2;SDS_P1;SDS_P2;PMS_P1;PMS_P2;Temp;Humidity;BMP_temperature;BMP_pressure;BME280_temperature;BME280_humidity;BME280_pressure;Samples;Min_cycle;Max_cycle;Signal;HPM_P1;HPM_P2
2022/12/18 00:01:21;;;;;;;15.20;10.70;;;;;;;17.02;36.96;102814.38;5047339;28;20033;-65
2022/12/18 00:03:47;;;;;;;14.05;9.98;;;;;;;17.05;36.78;102811.47;5046644;28;20029;-65
2022/12/18 00:06:13;;;;;;;13.90;9.88;;;;;;;17.05;36.82;102803.41;5062057;28;20033;-65
2022/12/18 00:08:39;;;;;;;14.45;9.77;;;;;;;17.06;36.72;102809.66;5046547;28;20037;-66
2022/12/18 00:11:08;;;;;;;12.90;9.63;;;;;;;17.05;36.75;102802.56;5046899;28;20021;-65
2022/12/18 00:13:34;;;;;;;13.00;9.73;;;;;;;17.05;36.80;102802.56;5046166;28;20109;-66
2022/12/18 00:16:05;;;;;;;15.27;10.73;;;;;;;17.02;36.93;102802.78;5045896;28;20088;-65
2022/12/18 00:18:30;;;;;;;12.43;9.52;;;;;;;17.03;36.75;102804.47;5045939;28;20029;-66
2022/12/18 00:21:00;;;;;;;12.85;10.25;;;;;;;17.03;36.71;102802.66;5046342;28;20034;-65
2022/12/18 00:23:26;;;;;;;13.32;10.55;;;;;;;17.02;36.80;102792.88;5044783;28;20087;-65
2022/12/18 00:25:51;;;;;;;14.80;10.27;;;;;;;17.01;36.63;102790.31;5046266;28;20429;-65
2022/12/18 00:28:16;;;;;;;14.02;10.43;;;;;;;17.01;36.75;102791.16;5045828;28;20033;-65
2022/12/18 00:30:41;;;;;;;14.15;10.52;;;;;;;16.92;36.85;102778.41;5046708;28;20026;-64
2022/12/18 00:33:07;;;;;;;13.57;9.88;;;;;;;16.97;36.87;102789.69;5046148;28;20026;-64
2022/12/18 00:35:32;;;;;;;12.98;9.95;;;;;;;16.99;36.77;102785.03;5046355;28;20059;-64
2022/12/18 00:37:57;;;;;;;15.02;10.80;;;;;;;16.90;36.60;102769.56;5046332;28;20035;-64
2022/12/18 00:40:22;;;;;;;16.00;11.63;;;;;;;16.99;36.70;102787.72;5046073;28;20034;-64
2022/12/18 00:42:57;;;;;;;15.05;10.20;;;;;;;16.98;36.71;102783.31;5045785;28;20060;-64
2022/12/18 00:45:28;;;;;;;13.93;11.20;;;;;;;16.97;36.69;102774.41;5045683;28;20040;-64
2022/12/18 00:47:53;;;;;;;16.92;10.73;;;;;;;16.92;36.81;102776.56;5045751;28;20064;-64
2022/12/18 00:50:19;;;;;;;14.93;10.85;;;;;;;16.97;36.79;102781.63;5042486;28;20490;-63
2022/12/18 00:52:44;;;;;;;15.68;11.27;;;;;;;16.97;36.59;102781.63;5026197;28;20029;-63
2022/12/18 00:55:10;;;;;;;14.82;11.20;;;;;;;16.91;36.86;102774.00;5025676;28;20097;-63
2022/12/18 00:57:36;;;;;;;13.68;10.57;;;;;;;16.95;36.79;102783.56;5025817;28;20060;-64
2022/12/18 01:00:02;;;;;;;13.90;10.70;;;;;;;16.94;36.80;102782.69;5025689;28;20048;-64
2022/12/18 01:02:27;;;;;;;15.80;11.02;;;;;;;16.94;36.92;102784.50;5025881;28;20037;-63
2022/12/18 01:04:53;;;;;;;14.45;10.68;;;;;;;16.94;36.78;102795.25;5025445;28;20030;-64
2022/12/18 01:07:18;;;;;;;16.77;11.35;;;;;;;16.93;36.64;102802.47;5025643;28;20037;-63
2022/12/18 01:09:43;;;;;;;14.93;10.98;;;;;;;16.86;36.64;102785.06;5025709;28;20029;-64
2022/12/18 01:12:08;;;;;;;15.60;10.88;;;;;;;16.92;36.70;102805.28;5025657;28;20085;-63
2022/12/18 01:14:34;;;;;;;15.18;10.60;;;;;;;16.91;36.62;102800.88;5024879;28;20097;-63
2022/12/18 01:16:59;;;;;;;16.25;11.05;;;;;;;16.87;36.83;102780.56;5025221;28;20030;-63
2022/12/18 01:19:24;;;;;;;15.90;11.88;;;;;;;16.89;36.56;102778.63;5027585;28;20026;-65
2022/12/18 01:21:50;;;;;;;15.45;10.45;;;;;;;16.90;36.68;102772.25;5045390;28;20037;-63
2022/12/18 01:24:15;;;;;;;15.85;11.30;;;;;;;16.90;36.66;102774.94;5044967;28;20029;-64
2022/12/18 01:26:40;;;;;;;16.00;11.40;;;;;;;16.88;36.78;102783.13;5045233;28;20025;-64
2022/12/18 01:29:05;;;;;;;15.85;11.02;;;;;;;16.87;36.79;102786.78;5043994;28;20077;-64
2022/12/18 01:31:32;;;;;;;16.67;11.07;;;;;;;16.87;36.72;102781.41;5045285;28;20057;-64
2022/12/18 01:34:00;;;;;;;13.93;10.15;;;;;;;16.86;36.79;102782.38;5044828;28;20079;-64
2022/12/18 01:36:30;;;;;;;14.00;10.70;;;;;;;16.86;36.70;102781.50;5045182;28;20049;-64
2022/12/18 01:38:55;;;;;;;13.65;10.63;;;;;;;16.86;36.73;102777.00;5044845;28;20037;-64
2022/12/18 01:41:26;;;;;;;14.98;11.38;;;;;;;16.84;36.67;102778.94;5045340;28;20678;-64
2022/12/18 01:43:57;;;;;;;14.80;11.00;;;;;;;16.84;36.63;102787.00;5044330;28;20040;-65
2022/12/18 01:46:23;;;;;;;15.23;11.27;;;;;;;16.84;36.65;102787.00;5044681;28;20093;-65
2022/12/18 01:48:51;;;;;;;15.98;11.80;;;;;;;16.82;36.63;102791.63;5044683;28;20049;-64
2022/12/18 01:51:16;;;;;;;13.63;10.30;;;;;;;16.83;36.68;102798.72;5043639;28;20072;-65
2022/12/18 01:53:43;;;;;;;14.00;9.73;;;;;;;16.71;36.60;102762.81;5043164;28;20087;-64
2022/12/18 01:56:13;;;;;;;15.13;10.68;;;;;;;16.82;36.75;102788.97;5044648;28;20049;-64
2022/12/18 01:58:47;;;;;;;;;;;;;;;16.82;36.64;102786.28;5043411;28;20048;-64
2022/12/18 02:01:12;;;;;;;15.43;10.32;;;;;;;16.79;36.65;102789.16;5044703;28;19942;-64
2022/12/18 02:03:41;;;;;;;16.17;10.90;;;;;;;16.80;36.58;102798.94;5044255;28;20044;-65
2022/12/18 02:06:09;;;;;;;12.85;9.70;;;;;;;16.77;36.67;102792.91;5044436;28;20092;-64
2022/12/18 02:08:44;;;;;;;15.27;10.85;;;;;;;16.79;36.51;102809.81;5044495;28;20534;-65
2022/12/18 02:11:09;;;;;;;15.52;11.85;;;;;;;16.78;36.59;102808.06;5044529;28;20029;-63
2022/12/18 02:13:46;;;;;;;15.82;10.48;;;;;;;16.78;36.58;102808.94;5043166;28;20025;-64
2022/12/18 02:16:25;;;;;;;16.13;11.43;;;;;;;16.78;36.64;102802.69;5038228;28;20033;-63
2022/12/18 02:18:55;;;;;;;15.95;11.48;;;;;;;16.77;36.61;102801.81;5043138;28;20030;-63
2022/12/18 02:21:43;;;;;;;14.88;10.65;;;;;;;16.77;36.74;102806.34;5043319;28;20093;-63
2022/12/18 02:24:21;;;;;;;14.02;10.40;;;;;;;16.77;36.55;102792.91;5043172;28;20318;-63
2022/12/18 02:26:49;;;;;;;13.48;10.63;;;;;;;16.75;36.58;102795.72;5044444;28;20053;-63
2022/12/18 02:29:18;;;;;;;15.18;11.07;;;;;;;16.73;36.55;102801.19;5044147;28;20020;-63
2022/12/18 02:31:49;;;;;;;16.08;11.63;;;;;;;16.66;36.59;102778.41;5043332;28;20053;-63
2022/12/18 02:34:17;;;;;;;14.02;10.50;;;;;;;16.71;36.48;102800.41;5042944;28;20038;-62
2022/12/18 02:36:43;;;;;;;14.82;10.45;;;;;;;16.72;36.57;102796.78;5042998;28;20067;-63
2022/12/18 02:39:10;;;;;;;12.98;9.98;;;;;;;16.73;36.50;102803.00;5042700;28;20037;-63
2022/12/18 02:41:36;;;;;;;16.00;10.45;;;;;;;16.67;36.65;102800.75;5026448;28;20048;-63
2022/12/18 02:44:08;;;;;;;13.75;10.30;;;;;;;16.70;36.56;102809.44;5042097;28;20033;-63
2022/12/18 02:46:40;;;;;;;14.68;10.25;;;;;;;16.70;36.54;102801.38;5043734;28;20477;-62
2022/12/18 02:49:40;;;;;;;14.95;10.82;;;;;;;16.71;36.87;102807.63;5042541;28;20041;-63
2022/12/18 02:52:27;;;;;;;15.38;10.73;;;;;;;16.71;36.60;102804.94;5043028;28;20025;-63
2022/12/18 02:55:22;;;;;;;14.38;10.13;;;;;;;16.70;36.50;102795.16;5043745;28;20745;-63
2022/12/18 02:57:54;;;;;;;13.88;10.18;;;;;;;16.70;36.48;102792.47;5042752;28;20036;-62
2022/12/18 03:00:34;;;;;;;14.32;10.65;;;;;;;16.68;36.46;102792.56;5044519;28;20572;-62
2022/12/18 03:03:07;;;;;;;14.20;10.20;;;;;;;16.68;36.46;102786.34;5044644;28;20029;-62
2022/12/18 03:05:55;;;;;;;14.70;10.48;;;;;;;16.67;36.38;102785.47;5043711;28;20402;-64
2022/12/18 03:08:34;;;;;;;14.80;9.98;;;;;;;16.67;36.50;102781.94;5032936;28;20183;-64
2022/12/18 03:11:03;;;;;;;15.10;10.63;;;;;;;16.66;36.39;102774.84;5042866;28;20134;-63
2022/12/18 03:13:34;;;;;;;15.30;10.80;;;;;;;16.65;36.41;102768.63;5043493;28;20542;-63
2022/12/18 03:16:00;;;;;;;15.95;10.75;;;;;;;16.57;36.30;102754.03;5043422;28;20069;-62
2022/12/18 03:18:50;;;;;;;14.52;10.38;;;;;;;16.64;36.50;102763.34;5042234;28;20033;-63
2022/12/18 03:21:19;;;;;;;14.95;10.32;;;;;;;16.63;36.41;102773.22;5042910;28;20102;-63
2022/12/18 03:23:48;;;;;;;13.55;10.23;;;;;;;16.62;36.28;102763.47;5042228;28;20034;-63
2022/12/18 03:26:16;;;;;;;14.15;10.32;;;;;;;16.62;36.40;102758.09;5042338;28;20036;-63
2022/12/18 03:28:47;;;;;;;13.75;9.90;;;;;;;16.62;36.45;102773.34;5043253;28;20028;-63
2022/12/18 03:31:13;;;;;;;16.33;10.55;;;;;;;16.60;36.35;102765.38;5042868;28;20092;-63
2022/12/18 03:33:42;;;;;;;13.95;10.00;;;;;;;16.61;36.40;102766.25;5042921;28;20037;-63
2022/12/18 03:36:07;;;;;;;14.70;9.77;;;;;;;16.59;36.30;102761.00;5043768;28;20035;-63
2022/12/18 03:38:33;;;;;;;13.48;9.98;;;;;;;16.59;36.27;102766.34;5043520;28;20089;-63
2022/12/18 03:41:14;;;;;;;13.20;9.93;;;;;;;16.57;36.34;102752.19;5043681;28;20469;-63
2022/12/18 03:43:51;;;;;;;14.52;10.80;;;;;;;16.60;36.38;102751.09;5042924;28;20120;-63
2022/12/18 03:46:30;;;;;;;13.02;10.13;;;;;;;16.59;36.37;102757.44;5041924;28;20039;-63
2022/12/18 03:49:00;;;;;;;13.85;9.52;;;;;;;16.55;36.36;102748.75;5043435;28;20053;-63
2022/12/18 03:51:39;;;;;;;14.18;10.00;;;;;;;16.57;36.30;102754.03;5042593;28;20029;-63
2022/12/18 03:54:07;;;;;;;13.43;9.90;;;;;;;16.57;36.29;102756.72;5046847;28;20431;-63
2022/12/18 03:56:36;;;;;;;16.17;9.38;;;;;;;16.56;36.18;102750.47;5045943;28;20051;-63
2022/12/18 03:59:03;;;;;;;11.95;9.40;;;;;;;16.57;36.34;102754.88;5046024;28;20025;-63
2022/12/18 04:01:33;;;;;;;12.75;9.75;;;;;;;16.56;36.32;102747.78;5045878;28;20029;-62
2022/12/18 04:04:00;;;;;;;13.98;10.30;;;;;;;16.55;36.25;102753.25;5045546;28;20053;-62
2022/12/18 04:06:27;;;;;;;12.95;9.80;;;;;;;16.53;36.24;102744.47;5045776;28;20034;-63
2022/12/18 04:08:53;;;;;;;12.15;9.20;;;;;;;16.50;36.24;102738.34;5045519;28;20029;-62
2022/12/18 04:11:18;;;;;;;13.15;9.73;;;;;;;16.53;36.21;102736.41;5045676;28;20044;-63
2022/12/18 04:13:44;;;;;;;12.48;9.05;;;;;;;16.53;36.30;102729.22;5044788;28;20033;-62
2022/12/18 04:16:09;;;;;;;15.13;10.10;;;;;;;16.47;36.29;102729.63;5046340;28;20441;-62
2022/12/18 04:18:35;;;;;;;11.77;9.13;;;;;;;16.52;36.40;102738.22;5046460;28;20095;-62
2022/12/18 04:21:01;;;;;;;12.80;9.57;;;;;;;16.50;36.28;102735.66;5046516;28;20025;-63
2022/12/18 04:23:26;;;;;;;12.57;9.05;;;;;;;16.50;36.27;102729.41;5046306;28;20029;-62
2022/12/18 04:25:51;;;;;;;12.32;8.88;;;;;;;16.49;36.31;102739.31;5046386;28;20029;-63
2022/12/18 04:28:17;;;;;;;13.07;9.30;;;;;;;16.49;36.15;102742.00;5044197;28;20034;-63
2022/12/18 04:30:42;;;;;;;13.65;9.00;;;;;;;16.47;36.19;102741.22;5046514;28;20026;-63
2022/12/18 04:33:09;;;;;;;12.00;8.88;;;;;;;16.47;36.18;102741.22;5046243;28;20039;-63
2022/12/18 04:35:35;;;;;;;13.55;9.70;;;;;;;16.47;36.26;102740.38;5046363;28;20033;-63
2022/12/18 04:38:00;;;;;;;12.75;9.45;;;;;;;16.47;36.25;102741.22;5046078;28;20021;-63
2022/12/18 04:40:25;;;;;;;12.82;9.15;;;;;;;16.48;36.20;102734.03;5045965;28;20048;-63
2022/12/18 04:42:50;;;;;;;13.43;9.25;;;;;;;16.48;36.18;102737.59;5045897;28;20057;-63
2022/12/18 04:45:16;;;;;;;13.23;9.45;;;;;;;16.47;36.16;102737.69;5045331;28;20032;-63
2022/12/18 04:47:41;;;;;;;15.30;10.27;;;;;;;16.45;36.15;102735.13;5045809;28;20053;-63
2022/12/18 04:50:07;;;;;;;14.50;10.00;;;;;;;16.45;36.12;102734.25;5045827;28;20025;-63
2022/12/18 04:52:32;;;;;;;12.45;9.50;;;;;;;16.44;36.20;102730.72;5045873;28;20021;-63
2022/12/18 04:54:57;;;;;;;12.82;9.35;;;;;;;16.38;36.30;102728.44;5045731;28;20063;-63
2022/12/18 04:57:22;;;;;;;13.55;9.20;;;;;;;16.44;36.16;102738.78;5045849;28;20426;-63
2022/12/18 04:59:48;;;;;;;11.50;8.85;;;;;;;16.44;36.17;102730.72;5045083;28;20115;-63
2022/12/18 05:02:13;;;;;;;13.38;9.50;;;;;;;16.36;36.07;102727.72;5046013;28;20025;-62
2022/12/18 05:04:38;;;;;;;13.25;9.40;;;;;;;16.44;36.25;102743.28;5044148;28;20510;-63
2022/12/18 05:07:04;;;;;;;12.93;8.43;;;;;;;16.42;36.22;102742.53;5045556;28;20044;-63
2022/12/18 05:09:29;;;;;;;13.05;9.70;;;;;;;16.42;36.15;102739.84;5045636;28;20048;-63
2022/12/18 05:11:54;;;;;;;11.57;8.93;;;;;;;16.42;36.11;102739.84;5045700;28;20026;-64
2022/12/18 05:14:19;;;;;;;10.45;9.05;;;;;;;16.41;36.26;102738.13;5037587;28;20021;-63
2022/12/18 05:16:45;;;;;;;11.63;8.60;;;;;;;16.40;36.12;102750.69;5025091;28;20022;-63
2022/12/18 05:19:10;;;;;;;11.95;8.55;;;;;;;16.40;36.18;102758.75;5025346;28;20032;-63
2022/12/18 05:21:36;;;;;;;11.88;8.75;;;;;;;16.39;36.19;102758.84;5025587;28;20091;-63
2022/12/18 05:24:01;;;;;;;10.80;7.78;;;;;;;16.31;36.24;102745.09;5040430;28;20028;-63
2022/12/18 05:26:26;;;;;;;11.35;8.18;;;;;;;16.38;36.25;102755.28;5025571;28;20030;-63
2022/12/18 05:28:51;;;;;;;11.60;8.95;;;;;;;16.37;36.25;102761.63;5034383;28;20478;-62
2022/12/18 05:31:17;;;;;;;10.05;8.00;;;;;;;16.39;36.26;102770.44;5045358;28;20104;-63
2022/12/18 05:33:42;;;;;;;10.35;7.90;;;;;;;16.39;36.25;102774.94;5045010;28;20025;-63
2022/12/18 05:36:09;;;;;;;12.70;8.88;;;;;;;16.39;36.25;102777.63;5045005;28;20029;-64
2022/12/18 05:38:36;;;;;;;10.23;8.27;;;;;;;16.39;36.15;102778.47;5044821;28;20380;-64
2022/12/18 05:41:02;;;;;;;10.43;7.97;;;;;;;16.40;36.22;102777.53;5044970;28;20053;-64
2022/12/18 05:43:28;;;;;;;12.73;8.55;;;;;;;16.40;36.25;102774.00;5044452;28;20713;-64
2022/12/18 05:45:54;;;;;;;12.52;8.18;;;;;;;16.38;36.20;102784.81;5044515;28;20025;-64
2022/12/18 05:48:20;;;;;;;11.25;7.60;;;;;;;16.39;36.20;102783.00;5044657;28;20052;-63
2022/12/18 05:50:46;;;;;;;10.90;7.97;;;;;;;16.37;36.16;102788.47;5045241;28;20048;-63
2022/12/18 05:53:14;;;;;;;10.75;8.07;;;;;;;16.37;36.05;102793.84;5036326;28;20092;-63
2022/12/18 05:55:40;;;;;;;12.10;8.40;;;;;;;16.38;36.21;102789.34;5044770;28;20191;-62
2022/12/18 05:58:07;;;;;;;9.40;7.53;;;;;;;16.37;36.19;102791.16;5043875;28;20033;-63
2022/12/18 06:00:34;;;;;;;9.15;7.22;;;;;;;16.28;36.20;102781.06;5044858;28;20029;-63
2022/12/18 06:03:00;;;;;;;9.40;7.43;;;;;;;16.38;36.18;102797.41;5044760;28;20070;-63
2022/12/18 06:05:25;;;;;;;9.73;7.38;;;;;;;16.38;36.17;102781.28;5043435;28;20025;-63
2022/12/18 06:07:51;;;;;;;9.55;7.57;;;;;;;16.39;36.17;102780.31;5036862;28;20030;-63
2022/12/18 06:10:16;;;;;;;11.18;8.32;;;;;;;16.36;36.17;102769.81;5024662;28;20407;-63
2022/12/18 06:12:42;;;;;;;10.48;7.95;;;;;;;16.37;36.23;102768.84;5024018;28;20040;-62
2022/12/18 06:15:08;;;;;;;9.90;7.80;;;;;;;16.32;36.06;102760.25;5038864;28;20029;-68
2022/12/18 06:17:33;;;;;;;10.45;7.40;;;;;;;16.39;36.22;102764.22;5042989;28;20041;-62
2022/12/18 06:19:59;;;;;;;10.20;7.80;;;;;;;16.40;36.22;102760.56;5043893;28;20048;-61
2022/12/18 06:22:25;;;;;;;9.77;7.30;;;;;;;16.43;36.16;102761.19;5042695;28;20095;-60
2022/12/18 06:24:50;;;;;;;9.88;6.97;;;;;;;16.44;36.14;102756.72;5043291;28;20041;-60
2022/12/18 06:27:16;;;;;;;8.98;7.07;;;;;;;16.37;36.05;102740.16;5044138;28;20033;-60
2022/12/18 06:29:41;;;;;;;8.98;6.70;;;;;;;16.45;36.20;102756.59;5043449;28;20096;-60
2022/12/18 06:32:06;;;;;;;9.55;6.90;;;;;;;16.39;36.15;102746.28;5044136;28;20029;-61
2022/12/18 06:34:32;;;;;;;9.57;6.85;;;;;;;16.44;36.26;102746.84;5043822;28;20029;-60
2022/12/18 06:36:58;;;;;;;9.57;6.60;;;;;;;16.47;36.16;102754.66;5043948;28;20026;-61
2022/12/18 06:39:23;;;;;;;9.65;7.00;;;;;;;16.40;36.18;102734.59;5043678;28;20033;-61
2022/12/18 06:41:49;;;;;;;9.80;7.30;;;;;;;16.48;36.27;102750.13;5044063;28;20530;-62
2022/12/18 06:44:14;;;;;;;10.32;7.63;;;;;;;16.49;36.13;102747.34;5039062;28;20482;-61
2022/12/18 06:46:39;;;;;;;7.75;6.22;;;;;;;16.50;36.26;102740.16;5026522;28;20029;-61
2022/12/18 06:49:04;;;;;;;8.15;6.30;;;;;;;16.49;36.26;102733.94;5023591;28;20133;-60
2022/12/18 06:51:30;;;;;;;7.55;6.07;;;;;;;16.50;36.14;102732.97;5024237;28;20022;-61
2022/12/18 06:53:55;;;;;;;9.60;7.15;;;;;;;16.50;36.19;102730.28;5023593;28;20029;-60
2022/12/18 06:56:21;;;;;;;8.23;6.55;;;;;;;16.50;36.37;102724.91;5024163;28;20378;-61
2022/12/18 06:58:46;;;;;;;10.13;7.30;;;;;;;16.50;36.47;102722.22;5045468;28;20097;-61
2022/12/18 07:01:12;;;;;;;7.38;5.90;;;;;;;16.49;36.38;102725.88;5044345;28;20021;-60
2022/12/18 07:03:39;;;;;;;8.43;6.45;;;;;;;16.50;36.46;102722.22;5042974;28;20025;-61
2022/12/18 07:06:04;;;;;;;10.57;7.45;;;;;;;16.51;36.63;102717.69;5043721;28;20029;-61
2022/12/18 07:08:30;;;;;;;8.00;6.82;;;;;;;16.52;36.64;102716.72;5059089;28;20107;-61
2022/12/18 07:10:56;;;;;;;9.13;6.60;;;;;;;16.52;36.78;102713.19;5043929;28;20017;-61
2022/12/18 07:13:21;;;;;;;8.40;6.38;;;;;;;16.45;36.86;102694.84;5042690;28;20490;-61
2022/12/18 07:15:46;;;;;;;8.88;6.57;;;;;;;16.52;36.72;102710.50;5043143;28;20792;-61
2022/12/18 07:18:12;;;;;;;8.48;6.70;;;;;;;16.54;36.83;102711.28;5043516;28;20060;-61
2022/12/18 07:20:37;;;;;;;8.82;6.60;;;;;;;16.55;36.84;102713.84;5043523;28;20183;-61
2022/12/18 07:23:03;;;;;;;11.45;6.22;;;;;;;16.56;37.02;102710.19;5043223;28;20064;-60
2022/12/18 07:25:29;;;;;;;8.02;6.40;;;;;;;16.57;36.94;102709.22;5043562;28;20061;-62
2022/12/18 07:27:54;;;;;;;8.55;6.10;;;;;;;16.54;36.97;102705.91;5045815;28;20037;-62
2022/12/18 07:30:19;;;;;;;8.88;6.40;;;;;;;16.56;37.29;102699.44;5046953;28;20040;-62
2022/12/18 07:32:44;;;;;;;8.80;6.25;;;;;;;16.56;37.01;102703.94;5047175;28;20033;-63
2022/12/18 07:35:10;;;;;;;7.47;6.20;;;;;;;16.57;37.10;102703.84;5046941;28;20666;-62
2022/12/18 07:37:35;;;;;;;9.90;7.25;;;;;;;16.60;37.00;102708.13;5047315;28;20040;-62
2022/12/18 07:40:00;;;;;;;9.50;6.22;;;;;;;16.61;36.94;102707.16;5045949;28;20017;-61
2022/12/18 07:42:32;;;;;;;8.77;6.55;;;;;;;16.59;36.90;102715.34;5047326;28;20077;-62
2022/12/18 07:45:01;;;;;;;8.70;6.60;;;;;;;16.58;36.97;102727.06;5046562;28;20025;-62
2022/12/18 07:47:27;;;;;;;8.32;6.60;;;;;;;16.58;36.93;102726.19;5046329;28;20077;-61
2022/12/18 07:49:53;;;;;;;8.60;6.50;;;;;;;16.56;37.14;102725.44;5046858;28;20030;-62
2022/12/18 07:52:18;;;;;;;8.65;6.22;;;;;;;16.56;37.02;102720.06;5046363;28;20021;-62
2022/12/18 07:54:43;;;;;;;10.27;6.85;;;;;;;16.57;37.01;102717.28;5046641;28;20030;-62
2022/12/18 07:57:09;;;;;;;8.38;6.53;;;;;;;16.59;36.97;102711.78;5047033;28;20025;-62
2022/12/18 07:59:35;;;;;;;8.30;6.32;;;;;;;16.58;36.88;102702.88;5045827;28;20049;-62
2022/12/18 08:02:01;;;;;;;7.75;6.50;;;;;;;16.55;36.88;102689.66;5045823;28;20030;-60
2022/12/18 08:04:26;;;;;;;9.85;7.45;;;;;;;16.60;37.00;102683.97;5046394;28;20085;-60
2022/12/18 08:06:51;;;;;;;7.50;5.95;;;;;;;16.59;36.92;102674.19;5047084;28;20026;-60
2022/12/18 08:09:17;;;;;;;9.50;7.03;;;;;;;16.62;36.86;102679.38;5046504;28;20044;-60
2022/12/18 08:11:42;;;;;;;7.82;5.82;;;;;;;16.59;36.92;102669.69;5046348;28;20026;-61
2022/12/18 08:14:08;;;;;;;7.63;6.03;;;;;;;16.58;36.84;102673.34;5045661;28;20102;-61
2022/12/18 08:16:33;;;;;;;10.57;7.53;;;;;;;16.60;36.76;102659.78;5046180;28;20029;-61
2022/12/18 08:18:58;;;;;;;10.48;6.93;;;;;;;16.62;36.71;102663.25;5045720;28;20108;-62
2022/12/18 08:21:26;;;;;;;8.23;6.30;;;;;;;16.61;36.65;102665.06;5046458;28;20026;-63
2022/12/18 08:23:53;;;;;;;7.97;6.00;;;;;;;16.58;36.69;102661.75;5046185;28;20018;-61
2022/12/18 08:26:19;;;;;;;7.70;6.10;;;;;;;16.61;36.61;102670.44;5046688;28;20041;-61
2022/12/18 08:28:45;;;;;;;9.07;6.43;;;;;;;16.61;36.56;102661.50;5045760;28;20052;-61
2022/12/18 08:31:10;;;;;;;9.23;6.05;;;;;;;16.62;36.53;102661.41;5046379;28;20029;-62
2022/12/18 08:33:36;;;;;;;7.10;6.03;;;;;;;16.62;36.51;102656.03;5045956;28;20025;-61
2022/12/18 08:36:03;;;;;;;8.80;6.85;;;;;;;16.61;36.42;102656.13;5046168;28;20052;-61
2022/12/18 08:38:28;;;;;;;8.32;5.68;;;;;;;16.60;36.42;102657.97;5045046;28;20032;-61
2022/12/18 08:40:59;;;;;;;8.45;6.47;;;;;;;16.61;36.55;102653.44;5045629;28;20029;-62
2022/12/18 08:46:08;;;;;;;8.52;6.47;;;;;;;16.61;36.50;102648.97;5045410;28;20028;-61
2022/12/18 08:48:33;;;;;;;7.15;5.80;;;;;;;16.61;36.35;102645.41;5045270;28;20054;-61
2022/12/18 08:50:59;;;;;;;8.93;6.47;;;;;;;16.57;36.53;102641.25;5045720;28;20484;-61
2022/12/18 08:53:25;;;;;;;8.68;6.13;;;;;;;16.54;36.46;102638.78;5045267;28;20551;-62
2022/12/18 08:55:51;;;;;;;8.52;6.63;;;;;;;16.59;36.39;102653.56;5044614;28;20043;-61
2022/12/18 08:58:16;;;;;;;8.75;6.93;;;;;;;16.58;36.44;102656.38;5044982;28;20025;-62
2022/12/18 09:00:41;;;;;;;7.50;6.03;;;;;;;16.63;36.55;102660.44;5044959;28;20037;-62
2022/12/18 09:03:14;;;;;;;7.78;6.15;;;;;;;16.46;36.72;102626.75;5045031;28;20068;-62
2022/12/18 09:05:39;;;;;;;8.40;6.50;;;;;;;16.64;36.53;102658.59;5060950;28;20036;-62
2022/12/18 09:08:05;;;;;;;8.30;6.38;;;;;;;16.63;36.59;102644.31;5045168;28;20064;-61
2022/12/18 09:10:30;;;;;;;7.75;5.70;;;;;;;16.70;36.52;102655.50;5045153;28;20036;-62
2022/12/18 09:12:56;;;;;;;9.43;6.93;;;;;;;16.70;36.65;102653.66;5045396;28;20681;-61
2022/12/18 09:15:21;;;;;;;9.15;6.53;;;;;;;16.71;36.55;102659.88;5044332;28;20102;-61
2022/12/18 09:17:47;;;;;;;9.20;6.28;;;;;;;16.70;36.68;102664.41;5044907;28;20053;-61
2022/12/18 09:20:13;;;;;;;8.30;6.13;;;;;;;16.74;36.72;102667.75;5043404;28;20025;-61
2022/12/18 09:22:38;;;;;;;8.43;6.25;;;;;;;16.72;36.66;102657.13;5045074;28;20094;-62
2022/12/18 09:25:04;;;;;;;7.57;6.15;;;;;;;16.76;36.41;102646.16;5044742;28;20029;-61
2022/12/18 09:27:29;;;;;;;8.70;5.65;;;;;;;16.77;36.51;102639.81;5045045;28;20033;-61
2022/12/18 09:29:54;;;;;;;9.63;6.68;;;;;;;16.78;36.33;102634.34;5044255;28;20470;-61
2022/12/18 09:32:19;;;;;;;7.53;6.05;;;;;;;16.79;36.28;102645.94;5044939;28;20026;-62
2022/12/18 09:34:45;;;;;;;8.68;6.38;;;;;;;16.80;36.32;102658.41;5044601;28;20030;-62
2022/12/18 09:37:10;;;;;;;8.60;6.10;;;;;;;16.80;36.08;102664.63;5043395;28;20021;-66
2022/12/18 09:39:35;;;;;;;6.72;5.45;;;;;;;16.83;36.24;102671.59;5043900;28;20067;-62
2022/12/18 09:42:00;;;;;;;8.30;6.65;;;;;;;16.84;36.32;102673.31;5044873;28;20041;-62
2022/12/18 09:44:36;;;;;;;7.82;5.57;;;;;;;16.90;36.33;102667.47;5044066;28;20042;-62
2022/12/18 09:47:09;;;;;;;7.35;5.38;;;;;;;16.95;36.39;102654.59;5042425;28;20040;-64
2022/12/18 09:49:40;;;;;;;7.53;5.53;;;;;;;17.02;36.22;102663.91;5042489;28;20100;-62
2022/12/18 09:52:24;;;;;;;7.75;6.00;;;;;;;17.04;36.06;102642.31;5043014;28;20109;-61
2022/12/18 09:54:55;;;;;;;7.35;5.63;;;;;;;17.01;36.18;102648.75;5044115;28;20088;-62
2022/12/18 09:57:22;;;;;;;8.55;5.72;;;;;;;16.97;35.98;102633.81;5042949;28;20036;-61
2022/12/18 09:59:57;;;;;;;9.68;5.60;;;;;;;16.91;35.96;102627.09;5042821;28;20088;-61
2022/12/18 10:02:24;;;;;;;8.10;5.63;;;;;;;16.87;36.24;102624.75;5038314;28;20040;-62
2022/12/18 10:05:28;;;;;;;6.72;5.45;;;;;;;16.96;36.10;102630.28;5041133;28;20045;-61
2022/12/18 10:07:57;;;;;;;7.95;5.63;;;;;;;16.92;36.00;102618.06;5052873;28;20045;-62
2022/12/18 10:10:48;;;;;;;7.07;5.75;;;;;;;16.99;36.00;102607.69;5043214;28;20033;-62
2022/12/18 10:13:33;;;;;;;6.75;5.22;;;;;;;16.96;36.03;102598.03;5042854;28;20029;-62
2022/12/18 10:16:07;;;;;;;8.52;5.03;;;;;;;17.01;36.05;102605.75;5007295;28;20026;-62
2022/12/18 10:18:59;;;;;;;9.95;5.45;;;;;;;17.03;36.00;102586.81;5024305;28;20442;-61
2022/12/18 10:21:51;;;;;;;7.35;5.32;;;;;;;17.03;35.91;102584.97;5024499;28;20026;-62
2022/12/18 10:24:37;;;;;;;6.70;5.50;;;;;;;17.03;35.94;102576.06;5022744;28;20077;-61
2022/12/18 10:27:16;;;;;;;6.60;5.28;;;;;;;17.05;35.95;102568.78;5039771;28;20526;-61
2022/12/18 10:29:44;;;;;;;8.07;5.05;;;;;;;17.04;36.03;102564.38;5024030;28;20018;-61
2022/12/18 10:32:14;;;;;;;8.02;5.63;;;;;;;17.05;35.95;102541.91;5039858;28;20905;-62
2022/12/18 10:34:40;;;;;;;7.10;5.07;;;;;;;17.05;36.01;102545.44;5037547;28;20036;-62
2022/12/18 10:37:06;;;;;;;5.78;4.40;;;;;;;17.04;36.06;102565.22;5055683;28;20029;-62
2022/12/18 10:39:31;;;;;;;6.45;5.22;;;;;;;17.06;35.88;102565.94;5052514;28;20030;-62
2022/12/18 10:42:14;;;;;;;7.70;4.55;;;;;;;17.04;35.99;102572.44;5043761;28;20040;-62
2022/12/18 10:44:39;;;;;;;5.40;4.78;;;;;;;17.03;35.99;102568.88;5042313;28;20083;-62
2022/12/18 10:47:06;;;;;;;7.18;4.80;;;;;;;17.00;36.10;102566.44;5042340;28;20052;-62
2022/12/18 10:49:33;;;;;;;7.63;4.57;;;;;;;17.02;36.07;102553.72;5042590;28;20026;-63
2022/12/18 10:52:16;;;;;;;6.22;4.78;;;;;;;16.94;35.97;102534.63;5042478;28;20029;-61
2022/12/18 10:54:48;;;;;;;6.13;4.70;;;;;;;17.01;35.81;102529.66;5041669;28;20025;-62
2022/12/18 10:57:25;;;;;;;5.57;4.50;;;;;;;17.01;36.04;102530.53;5041208;28;20122;-62
2022/12/18 10:59:54;;;;;;;8.38;4.97;;;;;;;17.00;35.87;102528.81;5042703;28;20030;-63
2022/12/18 11:02:34;;;;;;;6.57;4.90;;;;;;;17.02;36.02;102526.00;5044776;28;20021;-63
2022/12/18 11:05:00;;;;;;;6.65;4.72;;;;;;;16.98;36.04;102528.06;5045744;28;20033;-62
2022/12/18 11:07:29;;;;;;;5.68;4.65;;;;;;;16.96;36.03;102528.19;5045951;28;20040;-61
2022/12/18 11:10:01;;;;;;;7.07;4.63;;;;;;;16.98;35.91;102530.75;5046229;28;20048;-62
2022/12/18 11:12:28;;;;;;;5.75;4.20;;;;;;;16.97;36.02;102532.56;5047262;28;20081;-61
2022/12/18 11:14:55;;;;;;;7.32;4.78;;;;;;;16.97;36.00;102531.72;5039946;28;20014;-61
2022/12/18 11:17:24;;;;;;;6.72;4.50;;;;;;;16.98;35.95;102539.66;5034280;28;20460;-62
2022/12/18 11:20:00;;;;;;;5.47;4.13;;;;;;;16.75;35.94;102505.63;5047374;28;20013;-61
2022/12/18 11:22:31;;;;;;;5.50;4.40;;;;;;;16.93;35.88;102530.25;5047187;28;20053;-61
2022/12/18 11:25:12;;;;;;;6.40;4.55;;;;;;;17.04;35.97;102550.94;5045560;28;20043;-61
2022/12/18 11:27:38;;;;;;;8.85;4.93;;;;;;;17.05;35.95;102539.22;5046597;28;20060;-61